Gällivare Airport

ESNG · 北博滕, 瑞典

2024年5月21日 14:002024年5月21日 23:00有效
时间
星期二
14:00
星期二
15:00
星期二
16:00
星期二
17:00
星期二
18:00
星期二
19:00
星期二
20:00
星期二
21:00
星期二
22:00
代码
VFR
VFR
VFR
VFR
VFR
VFR
VFR
VFR
VFR
天气
几云
几云
几云
几云
几云
几云
几云
几云
几云
能见度
10 km+
10 km+
10 km+
10 km+
10 km+
10 km+
10 km+
10 km+
10 km+
天花板
-
-
-
-
-
-
-
-
-
220°
220°
220°
220°
220°
220°
220°
220°
220°
220°
220°
220°
220°
220°
220°
220°
220°
220°
速度
7 kt
7 kt
7 kt
7 kt
7 kt
7 kt
7 kt
7 kt
7 kt
阵风
温度/星期日

原版的

TAF ESNG 211130Z 2112/2121 22007KT 9999 FEW045

TAF Gällivare Airport

Gällivare Airport是,瑞典中的中型机场。 该机场位于纬度67,13240和经度20,81460。 该机场有一条跑道: 12/30. 本场的ICAO机场代码为ESNG。 该机场的IATA代码为GEV。 机场在Sweden FIR中。

该航空气象观测是针对Gällivare Airport在2024年5月21日 13:30, 当地时间进行的。 从2024年5月21日 14:00到2024年5月21日 23:00, 当地时间有效.

预报

  • 在星期二 14:00和23:00之间

    • 风: 风来自220°方向,速度为7 kt。
    • 能见度: 10 km 或者更多
    • 乌云: 几云在4.500 ft的高度.

白天

今天,太阳从02:06升起,在23:00降落。 这适用于Gällivare Airport,世界夏令时可能有所不同。 当地时间与世界标准时间之间的时差为+2 小时。 夏令时目前正在进行中。

报告变更